createdAt,value
2017-10-23T00:01:42.093Z,2.70
2017-10-23T00:04:10.478Z,2.37
2017-10-23T00:06:38.904Z,2.00
2017-10-23T00:09:07.006Z,2.10
2017-10-23T00:11:35.219Z,1.60
2017-10-23T00:14:03.279Z,1.60
2017-10-23T00:16:31.694Z,1.73
2017-10-23T00:19:00.129Z,1.80
2017-10-23T00:21:28.970Z,1.30
2017-10-23T00:23:57.519Z,1.70
2017-10-23T00:26:26.017Z,2.03
2017-10-23T00:28:54.637Z,1.70
2017-10-23T00:31:23.037Z,1.83
2017-10-23T00:33:51.184Z,1.70
2017-10-23T00:36:19.303Z,2.13
2017-10-23T00:38:47.737Z,1.80
2017-10-23T00:41:16.237Z,1.40
2017-10-23T00:43:44.669Z,1.80
2017-10-23T00:46:12.378Z,1.77
2017-10-23T00:48:40.794Z,1.80
2017-10-23T00:51:09.257Z,2.10
2017-10-23T00:53:37.878Z,2.20
2017-10-23T00:56:06.633Z,2.20
2017-10-23T00:58:35.513Z,2.07
2017-10-23T01:01:04.464Z,2.23
2017-10-23T01:03:33.046Z,2.07
2017-10-23T01:06:01.591Z,2.20
2017-10-23T01:08:30.063Z,2.30
2017-10-23T01:10:58.485Z,2.80
2017-10-23T01:13:26.963Z,2.17
2017-10-23T01:15:55.033Z,2.20
2017-10-23T01:18:23.800Z,2.07
2017-10-23T01:20:52.339Z,2.33
2017-10-23T01:23:20.705Z,2.00
2017-10-23T01:25:48.858Z,2.13
2017-10-23T01:28:17.043Z,2.37
2017-10-23T01:30:45.228Z,2.40
2017-10-23T01:33:13.482Z,2.10
2017-10-23T01:35:42.819Z,2.30
2017-10-23T01:38:11.317Z,2.17
2017-10-23T01:40:39.524Z,2.30
2017-10-23T01:43:07.749Z,2.10
2017-10-23T01:45:36.723Z,2.60
2017-10-23T01:48:04.882Z,2.37
2017-10-23T01:50:33.390Z,2.47
2017-10-23T01:53:01.441Z,2.67
2017-10-23T01:55:30.765Z,2.57
2017-10-23T01:57:59.338Z,2.33
2017-10-23T02:00:28.655Z,2.77
2017-10-23T02:02:56.838Z,2.70
2017-10-23T02:05:25.317Z,2.23
2017-10-23T02:07:53.417Z,2.40
2017-10-23T02:10:21.560Z,2.40
2017-10-23T02:12:50.152Z,2.60
2017-10-23T02:15:18.773Z,2.30
2017-10-23T02:17:47.350Z,2.77
2017-10-23T02:20:16.688Z,2.50
2017-10-23T02:22:45.277Z,2.60
2017-10-23T02:25:14.553Z,2.13
2017-10-23T02:27:43.040Z,2.80
2017-10-23T02:30:11.544Z,2.73
2017-10-23T02:32:39.796Z,2.63
2017-10-23T02:35:08.353Z,2.70
2017-10-23T02:37:36.991Z,2.60
2017-10-23T02:40:05.983Z,2.80
2017-10-23T02:42:34.403Z,2.70
2017-10-23T02:45:03.081Z,2.53
2017-10-23T02:47:31.171Z,2.23
2017-10-23T02:49:59.642Z,2.70
2017-10-23T02:52:27.799Z,2.60
2017-10-23T02:54:56.356Z,2.50
2017-10-23T02:57:24.583Z,2.50
2017-10-23T02:59:52.641Z,2.30
2017-10-23T03:02:20.726Z,2.60
2017-10-23T03:04:49.296Z,2.57
2017-10-23T03:07:17.506Z,2.80
2017-10-23T03:09:45.646Z,2.17
2017-10-23T03:12:13.828Z,2.40
2017-10-23T03:14:42.394Z,2.00
2017-10-23T03:17:10.953Z,2.33
2017-10-23T03:19:39.433Z,2.10
2017-10-23T03:22:07.505Z,2.50
2017-10-23T03:24:35.993Z,2.30
2017-10-23T03:27:04.129Z,1.97
2017-10-23T03:29:32.329Z,2.27
2017-10-23T03:32:00.845Z,2.00
2017-10-23T03:34:29.131Z,1.83
2017-10-23T03:36:57.293Z,2.00
2017-10-23T03:39:25.576Z,2.03
2017-10-23T03:41:53.771Z,2.00
2017-10-23T03:44:21.977Z,2.53
2017-10-23T03:46:50.592Z,2.37
2017-10-23T03:49:18.661Z,2.40
2017-10-23T03:51:46.942Z,2.57
2017-10-23T03:54:15.140Z,1.90
2017-10-23T03:56:43.290Z,1.83
2017-10-23T03:59:11.953Z,2.10
2017-10-23T04:01:41.447Z,1.93
2017-10-23T04:04:10.300Z,1.60
2017-10-23T04:06:38.953Z,2.40
2017-10-23T04:09:07.492Z,2.13
2017-10-23T04:11:35.592Z,1.93
2017-10-23T04:14:04.323Z,2.13
2017-10-23T04:16:33.185Z,2.37
2017-10-23T04:19:01.441Z,2.00
2017-10-23T04:21:29.724Z,2.37
2017-10-23T04:23:58.296Z,1.80
2017-10-23T04:26:26.992Z,2.33
2017-10-23T04:28:55.871Z,1.83
2017-10-23T04:31:24.385Z,2.57
2017-10-23T04:33:52.520Z,2.23
2017-10-23T04:36:20.731Z,2.10
2017-10-23T04:38:49.193Z,1.93
2017-10-23T04:41:17.753Z,2.30
2017-10-23T04:43:45.908Z,2.57
2017-10-23T04:46:14.750Z,2.37
2017-10-23T04:48:43.272Z,2.43
2017-10-23T04:51:11.464Z,2.10
2017-10-23T04:53:39.556Z,2.50
2017-10-23T04:56:08.761Z,2.13
2017-10-23T04:58:38.049Z,2.30
2017-10-23T05:01:06.594Z,2.17
2017-10-23T05:03:35.130Z,2.30
2017-10-23T05:06:04.101Z,2.40
2017-10-23T05:08:32.546Z,2.50
2017-10-23T05:11:00.578Z,2.50
2017-10-23T05:13:29.070Z,2.57
2017-10-23T05:15:57.470Z,2.60
2017-10-23T05:18:25.489Z,2.60
2017-10-23T05:20:54.594Z,2.47
2017-10-23T05:23:23.529Z,2.50
2017-10-23T05:25:52.530Z,3.03
2017-10-23T05:28:20.688Z,2.90
2017-10-23T05:30:49.595Z,2.73
2017-10-23T05:33:17.381Z,3.40
2017-10-23T05:35:45.963Z,3.43
2017-10-23T05:38:14.526Z,2.97
2017-10-23T05:40:42.994Z,3.20
2017-10-23T05:43:11.106Z,3.00
2017-10-23T05:45:40.406Z,3.40
2017-10-23T05:48:08.961Z,3.10
2017-10-23T05:50:37.425Z,3.33
2017-10-23T05:53:05.485Z,3.57
2017-10-23T05:55:35.128Z,3.30
2017-10-23T05:58:04.038Z,4.07
2017-10-23T06:00:32.191Z,3.03
2017-10-23T06:03:00.666Z,3.40
2017-10-23T06:05:29.860Z,2.70
2017-10-23T06:07:58.397Z,3.57
2017-10-23T06:10:26.835Z,3.50
2017-10-23T06:12:55.702Z,3.30
2017-10-23T06:15:24.470Z,3.60
2017-10-23T06:17:53.711Z,4.27
2017-10-23T06:20:22.617Z,4.73
2017-10-23T06:22:51.134Z,4.23
2017-10-23T06:25:20.244Z,4.20
2017-10-23T06:27:48.753Z,4.23
2017-10-23T06:30:17.233Z,4.00
2017-10-23T06:32:46.244Z,4.10
2017-10-23T06:35:14.778Z,3.70
2017-10-23T06:37:42.959Z,3.80
2017-10-23T06:40:11.433Z,3.97
2017-10-23T06:42:39.855Z,4.70
2017-10-23T06:45:07.998Z,4.03
2017-10-23T06:47:36.382Z,4.07
2017-10-23T06:50:05.255Z,3.83
2017-10-23T06:52:34.409Z,3.50
2017-10-23T06:55:02.605Z,3.80
2017-10-23T06:57:31.465Z,2.90
2017-10-23T06:59:59.925Z,3.67
2017-10-23T07:02:28.495Z,2.83
2017-10-23T07:04:56.602Z,3.00
2017-10-23T07:07:25.157Z,3.17
2017-10-23T07:09:54.303Z,3.30
2017-10-23T07:12:22.700Z,3.00
2017-10-23T07:14:51.222Z,3.60
2017-10-23T07:17:19.666Z,3.37
2017-10-23T07:19:48.142Z,3.70
2017-10-23T07:22:16.626Z,4.00
2017-10-23T07:24:44.738Z,4.07
2017-10-23T07:27:13.874Z,4.60
2017-10-23T07:29:41.958Z,5.00
2017-10-23T07:32:10.528Z,5.03
2017-10-23T07:34:38.841Z,5.13
2017-10-23T07:37:07.354Z,5.13
2017-10-23T07:39:35.882Z,4.63
2017-10-23T07:42:04.357Z,4.90
2017-10-23T07:44:32.946Z,5.10
2017-10-23T07:47:01.520Z,5.37
2017-10-23T07:49:30.009Z,4.83
2017-10-23T07:51:58.122Z,4.50
2017-10-23T07:54:26.568Z,4.70
2017-10-23T07:56:55.158Z,4.37
2017-10-23T07:59:24.353Z,4.83
2017-10-23T08:01:52.550Z,4.67
2017-10-23T08:04:20.663Z,4.40
2017-10-23T08:06:48.842Z,4.57
2017-10-23T08:09:17.278Z,3.77
2017-10-23T08:11:45.808Z,3.57
2017-10-23T08:14:13.974Z,3.73
2017-10-23T08:16:42.564Z,3.63
2017-10-23T08:19:11.118Z,3.87
2017-10-23T08:21:39.657Z,3.43
2017-10-23T08:24:08.895Z,3.80
2017-10-23T08:26:36.946Z,4.10
2017-10-23T08:29:05.447Z,3.90
2017-10-23T08:31:34.657Z,3.73
2017-10-23T08:34:03.265Z,3.00
2017-10-23T08:36:32.397Z,3.40
2017-10-23T08:39:01.223Z,3.23
2017-10-23T08:41:30.244Z,3.40
2017-10-23T08:43:58.933Z,3.33
2017-10-23T08:46:27.683Z,3.07
2017-10-23T08:48:55.827Z,3.10
2017-10-23T08:51:24.426Z,2.43
2017-10-23T08:53:53.161Z,2.47
2017-10-23T08:56:22.491Z,2.67
2017-10-23T08:58:51.102Z,2.50
2017-10-23T09:01:19.267Z,1.93
2017-10-23T09:03:47.681Z,2.37
2017-10-23T09:06:16.286Z,2.40
2017-10-23T09:08:44.328Z,2.27
2017-10-23T09:11:12.804Z,2.63
2017-10-23T09:13:41.309Z,2.20
2017-10-23T09:16:09.590Z,2.67
2017-10-23T09:18:37.721Z,2.33
2017-10-23T09:21:06.928Z,2.40
2017-10-23T09:23:35.495Z,2.00
2017-10-23T09:26:03.963Z,2.20
2017-10-23T09:28:32.090Z,2.17
2017-10-23T09:31:00.154Z,2.00
2017-10-23T09:33:28.601Z,1.80
2017-10-23T09:35:56.709Z,1.90
2017-10-23T09:38:25.174Z,2.10
2017-10-23T09:40:53.798Z,2.07
2017-10-23T09:43:22.312Z,1.93
2017-10-23T09:45:50.111Z,2.00
2017-10-23T09:48:17.850Z,1.80
2017-10-23T09:50:46.464Z,1.83
2017-10-23T09:53:16.091Z,1.80
2017-10-23T09:55:44.217Z,1.80
2017-10-23T09:58:12.665Z,2.10
2017-10-23T10:00:40.955Z,1.97
2017-10-23T10:03:09.521Z,2.53
2017-10-23T10:05:38.103Z,2.40
2017-10-23T10:08:06.512Z,2.43
2017-10-23T10:10:34.672Z,2.43
2017-10-23T10:13:02.679Z,2.20
2017-10-23T10:15:31.140Z,2.50
2017-10-23T10:17:59.197Z,2.80
2017-10-23T10:20:28.093Z,2.50
2017-10-23T10:22:56.590Z,2.70
2017-10-23T10:25:25.839Z,2.47
2017-10-23T10:27:53.878Z,2.70
2017-10-23T10:30:22.013Z,2.17
2017-10-23T10:32:50.536Z,2.40
2017-10-23T10:35:19.863Z,2.40
2017-10-23T10:37:47.592Z,2.37
2017-10-23T10:40:16.130Z,2.30
2017-10-23T10:42:45.054Z,2.47
2017-10-23T10:45:13.216Z,2.30
2017-10-23T10:47:41.755Z,2.07
2017-10-23T10:50:09.791Z,2.33
2017-10-23T10:52:38.402Z,2.23
2017-10-23T10:55:06.867Z,2.47
2017-10-23T10:57:34.504Z,2.27
2017-10-23T11:00:02.660Z,2.07
2017-10-23T11:02:30.302Z,1.87
2017-10-23T11:04:58.425Z,1.93
2017-10-23T11:07:26.853Z,2.20
2017-10-23T11:09:55.019Z,2.17
2017-10-23T11:12:24.210Z,2.10
2017-10-23T11:14:52.593Z,2.07
2017-10-23T11:17:20.283Z,1.90
2017-10-23T11:19:47.971Z,2.00
2017-10-23T11:22:15.798Z,1.67
2017-10-23T11:24:43.959Z,1.70
2017-10-23T11:27:12.553Z,1.80
2017-10-23T11:29:40.206Z,2.00
2017-10-23T11:32:07.913Z,1.80
2017-10-23T11:34:35.554Z,1.70
2017-10-23T11:37:04.106Z,1.90
2017-10-23T11:39:32.016Z,1.70
2017-10-23T11:41:59.864Z,1.63
2017-10-23T11:44:27.717Z,1.80
2017-10-23T11:46:55.497Z,1.70
2017-10-23T11:49:23.370Z,1.60
2017-10-23T11:51:51.177Z,1.70
2017-10-23T11:54:19.491Z,1.43
2017-10-23T11:56:47.248Z,1.80
2017-10-23T11:59:15.141Z,17.67
2017-10-23T12:01:42.830Z,1.70
2017-10-23T12:04:10.489Z,1.70
2017-10-23T12:06:38.149Z,1.57
2017-10-23T12:09:05.949Z,1.97
2017-10-23T12:11:35.425Z,2.00
2017-10-23T12:14:03.403Z,1.63
2017-10-23T12:16:32.547Z,1.90
2017-10-23T12:19:00.400Z,2.00
2017-10-23T12:21:28.053Z,1.60
2017-10-23T12:23:55.692Z,1.77
2017-10-23T12:26:24.584Z,1.40
2017-10-23T12:28:52.424Z,1.50
2017-10-23T12:31:20.666Z,1.70
2017-10-23T12:33:48.377Z,1.30
2017-10-23T12:36:16.135Z,1.20
2017-10-23T12:38:44.395Z,1.13
2017-10-23T12:41:12.182Z,1.17
2017-10-23T12:43:40.253Z,1.33
2017-10-23T12:46:07.941Z,1.17
2017-10-23T12:48:35.709Z,1.40
2017-10-23T12:51:03.340Z,1.47
2017-10-23T12:53:31.101Z,1.30
2017-10-23T12:55:58.795Z,1.50
2017-10-23T12:58:26.645Z,1.30
2017-10-23T13:00:54.431Z,1.10
2017-10-23T13:03:22.358Z,1.23
2017-10-23T13:05:51.402Z,1.10
2017-10-23T13:08:19.151Z,1.37
2017-10-23T13:10:47.010Z,1.40
2017-10-23T13:13:14.850Z,1.23
2017-10-23T13:15:42.646Z,1.40
2017-10-23T13:18:11.321Z,1.20
2017-10-23T13:20:39.153Z,1.40
2017-10-23T13:23:07.011Z,1.27
2017-10-23T13:25:35.088Z,1.00
2017-10-23T13:28:02.840Z,1.67
2017-10-23T13:30:30.763Z,1.33
2017-10-23T13:32:58.828Z,1.40
2017-10-23T13:35:26.561Z,1.60
2017-10-23T13:37:54.416Z,1.30
2017-10-23T13:40:22.154Z,1.63
2017-10-23T13:42:50.165Z,1.37
2017-10-23T13:45:18.227Z,1.60
2017-10-23T13:47:45.957Z,1.50
2017-10-23T13:50:14.053Z,1.20
2017-10-23T13:52:41.730Z,1.40
2017-10-23T13:55:09.450Z,1.33
2017-10-23T13:57:37.259Z,2.30
2017-10-23T14:00:05.096Z,1.40
2017-10-23T14:02:33.677Z,1.37
2017-10-23T14:05:01.468Z,1.60
2017-10-23T14:07:29.307Z,1.60
2017-10-23T14:09:57.197Z,1.53
2017-10-23T14:12:25.128Z,1.70
2017-10-23T14:14:52.957Z,1.40
2017-10-23T14:17:20.758Z,1.70
2017-10-23T14:19:48.674Z,1.80
2017-10-23T14:22:16.500Z,1.70
2017-10-23T14:24:44.273Z,1.90
2017-10-23T14:27:12.045Z,1.60
2017-10-23T14:29:39.824Z,1.50
2017-10-23T14:32:07.477Z,1.50
2017-10-23T14:34:35.174Z,1.80
2017-10-23T14:37:02.987Z,1.40
2017-10-23T14:39:30.931Z,1.33
2017-10-23T14:41:58.842Z,1.40
2017-10-23T14:44:26.767Z,1.50
2017-10-23T14:46:55.408Z,1.43
2017-10-23T14:49:23.213Z,1.50
2017-10-23T14:51:52.151Z,1.40
2017-10-23T14:54:25.950Z,1.30
2017-10-23T14:56:53.711Z,1.40
2017-10-23T14:59:24.034Z,1.60
2017-10-23T15:01:52.084Z,1.40
2017-10-23T15:04:19.843Z,1.60
2017-10-23T15:06:48.341Z,1.73
2017-10-23T15:09:16.469Z,2.00
2017-10-23T15:11:44.104Z,1.77
2017-10-23T15:14:12.530Z,1.80
2017-10-23T15:16:40.293Z,1.80
2017-10-23T15:19:08.037Z,1.90
2017-10-23T15:21:35.949Z,2.30
2017-10-23T15:24:04.512Z,2.10
2017-10-23T15:26:32.274Z,3.30
2017-10-23T15:29:00.045Z,2.13
2017-10-23T15:31:27.942Z,2.10
2017-10-23T15:33:55.788Z,2.23
2017-10-23T15:36:23.555Z,2.50
2017-10-23T15:38:52.644Z,2.00
2017-10-23T15:41:20.518Z,3.90
2017-10-23T15:43:48.366Z,1.90
2017-10-23T15:46:16.206Z,2.07
2017-10-23T15:48:45.471Z,2.10
2017-10-23T15:51:13.252Z,1.73
2017-10-23T15:53:41.051Z,2.17
2017-10-23T15:56:08.709Z,2.33
2017-10-23T15:58:36.416Z,1.90
2017-10-23T16:01:04.121Z,2.10
2017-10-23T16:03:32.273Z,1.77
2017-10-23T16:06:00.161Z,2.03
2017-10-23T16:08:27.958Z,2.10
2017-10-23T16:10:55.729Z,2.00
2017-10-23T16:13:24.698Z,2.20
2017-10-23T16:15:53.238Z,3.27
2017-10-23T16:18:21.437Z,2.30
2017-10-23T16:20:49.539Z,2.70
2017-10-23T16:23:17.248Z,2.67
2017-10-23T16:25:45.669Z,2.60
2017-10-23T16:28:13.441Z,2.37
2017-10-23T16:30:41.261Z,2.53
2017-10-23T16:33:09.138Z,2.90
2017-10-23T16:35:39.960Z,2.47
2017-10-23T16:38:09.095Z,2.87
2017-10-23T16:40:36.842Z,2.60
2017-10-23T16:43:04.719Z,2.73
2017-10-23T16:45:32.411Z,2.90
2017-10-23T16:48:00.683Z,2.87
2017-10-23T16:50:28.436Z,3.50
2017-10-23T16:52:56.061Z,2.80
2017-10-23T16:55:24.960Z,2.70
2017-10-23T16:57:52.788Z,2.90
2017-10-23T17:00:20.534Z,2.57
2017-10-23T17:02:48.210Z,2.80
2017-10-23T17:05:17.256Z,3.13
2017-10-23T17:07:45.142Z,2.90
2017-10-23T17:10:12.853Z,3.03
2017-10-23T17:12:40.757Z,3.00
2017-10-23T17:15:09.837Z,3.20
2017-10-23T17:17:38.025Z,2.70
2017-10-23T17:20:05.891Z,2.80
2017-10-23T17:22:33.868Z,3.57
2017-10-23T17:25:02.546Z,6.50
2017-10-23T17:27:31.985Z,2.50
2017-10-23T17:29:59.905Z,2.80
2017-10-23T17:32:28.080Z,2.73
2017-10-23T17:34:55.848Z,2.70
2017-10-23T17:37:24.940Z,2.77
2017-10-23T17:39:52.810Z,3.00
2017-10-23T17:42:20.645Z,2.90
2017-10-23T17:44:48.340Z,2.50
2017-10-23T17:47:16.389Z,2.80
2017-10-23T17:49:44.628Z,2.33
2017-10-23T17:52:13.643Z,2.60
2017-10-23T17:54:41.508Z,3.00
2017-10-23T17:57:11.121Z,2.60
2017-10-23T17:59:39.413Z,2.60
2017-10-23T18:02:08.158Z,2.47
2017-10-23T18:04:37.037Z,2.60
2017-10-23T18:07:05.554Z,2.50
2017-10-23T18:09:33.484Z,2.87
2017-10-23T18:12:01.591Z,3.20
2017-10-23T18:14:29.209Z,2.80
2017-10-23T18:16:56.998Z,3.10
2017-10-23T18:19:25.803Z,3.33
2017-10-23T18:21:53.522Z,3.10
2017-10-23T18:24:21.940Z,2.63
2017-10-23T18:26:49.713Z,2.97
2017-10-23T18:29:17.630Z,3.53
2017-10-23T18:31:45.411Z,3.53
2017-10-23T18:34:14.337Z,2.80
2017-10-23T18:36:42.069Z,3.47
2017-10-23T18:39:09.933Z,3.43
2017-10-23T18:41:38.493Z,3.40
2017-10-23T18:44:07.929Z,4.00
2017-10-23T18:46:36.201Z,3.90
2017-10-23T18:49:04.002Z,3.90
2017-10-23T18:51:31.852Z,4.43
2017-10-23T18:54:00.428Z,5.33
2017-10-23T18:56:28.349Z,4.57
2017-10-23T18:58:56.232Z,4.50
2017-10-23T19:01:24.125Z,5.57
2017-10-23T19:03:53.588Z,4.47
2017-10-23T19:06:21.965Z,6.17
2017-10-23T19:08:50.069Z,5.10
2017-10-23T19:11:17.800Z,5.07
2017-10-23T19:13:46.917Z,5.93
2017-10-23T19:16:15.215Z,4.90
2017-10-23T19:18:43.099Z,5.50
2017-10-23T19:21:11.415Z,5.90
2017-10-23T19:23:40.033Z,5.70
2017-10-23T19:26:08.644Z,7.00
2017-10-23T19:28:36.370Z,6.87
2017-10-23T19:31:04.093Z,7.30
2017-10-23T19:33:31.897Z,7.47
2017-10-23T19:35:59.890Z,7.60
2017-10-23T19:38:27.755Z,7.40
2017-10-23T19:40:56.489Z,7.00
2017-10-23T19:43:24.528Z,7.40
2017-10-23T19:45:54.114Z,6.60
2017-10-23T19:48:21.955Z,6.10
2017-10-23T19:50:50.424Z,6.50
2017-10-23T19:53:18.523Z,7.50
2017-10-23T19:55:46.668Z,6.30
2017-10-23T19:58:15.922Z,7.40
2017-10-23T20:00:44.114Z,6.97
2017-10-23T20:03:11.909Z,6.67
2017-10-23T20:05:39.797Z,7.57
2017-10-23T20:08:07.604Z,6.67
2017-10-23T20:10:36.658Z,7.33
2017-10-23T20:13:04.811Z,7.07
2017-10-23T20:15:33.722Z,7.00
2017-10-23T20:18:02.488Z,7.07
2017-10-23T20:20:30.866Z,7.03
2017-10-23T20:22:58.893Z,7.10
2017-10-23T20:25:27.209Z,6.80
2017-10-23T20:27:55.259Z,7.83
2017-10-23T20:30:23.581Z,7.07
2017-10-23T20:32:52.272Z,7.27
2017-10-23T20:35:20.288Z,8.00
2017-10-23T20:37:47.860Z,8.10
2017-10-23T20:40:15.486Z,8.77
2017-10-23T20:42:43.067Z,8.00
2017-10-23T20:45:11.464Z,7.20
2017-10-23T20:47:39.061Z,7.60
2017-10-23T20:50:06.845Z,7.10
2017-10-23T20:52:34.788Z,7.80
2017-10-23T20:55:02.517Z,8.17
2017-10-23T20:57:31.129Z,7.50
2017-10-23T20:59:58.819Z,8.20
2017-10-23T21:02:27.012Z,6.93
2017-10-23T21:04:55.106Z,6.43
2017-10-23T21:07:23.294Z,7.07
2017-10-23T21:09:51.268Z,6.00
2017-10-23T21:12:19.459Z,6.27
2017-10-23T21:14:47.813Z,5.70
2017-10-23T21:17:16.063Z,6.50
2017-10-23T21:19:44.673Z,5.40
2017-10-23T21:22:12.785Z,5.43
2017-10-23T21:24:41.300Z,5.90
2017-10-23T21:27:09.807Z,5.93
2017-10-23T21:29:37.433Z,5.97
2017-10-23T21:32:05.543Z,5.87
2017-10-23T21:34:33.625Z,5.20
2017-10-23T21:37:02.168Z,6.00
2017-10-23T21:39:30.628Z,5.13
2017-10-23T21:41:59.756Z,5.37
2017-10-23T21:44:27.890Z,4.93
2017-10-23T21:47:07.923Z,5.27
2017-10-23T21:49:36.462Z,4.90
2017-10-23T21:52:05.226Z,4.90
2017-10-23T21:54:33.465Z,5.60
2017-10-23T21:57:01.159Z,6.40
2017-10-23T21:59:28.909Z,4.83
2017-10-23T22:01:56.634Z,5.07
2017-10-23T22:04:24.312Z,5.30
2017-10-23T22:06:52.075Z,4.83
2017-10-23T22:09:19.861Z,4.70
2017-10-23T22:11:48.265Z,4.70
2017-10-23T22:14:15.994Z,5.03
2017-10-23T22:16:43.774Z,5.47
2017-10-23T22:19:11.957Z,5.17
2017-10-23T22:21:40.101Z,4.40
2017-10-23T22:24:08.218Z,5.53
2017-10-23T22:26:36.317Z,5.50
2017-10-23T22:29:04.398Z,5.17
2017-10-23T22:31:32.611Z,5.17
2017-10-23T22:34:01.204Z,5.60
2017-10-23T22:36:28.952Z,6.53
2017-10-23T22:38:57.103Z,6.10
2017-10-23T22:41:25.336Z,5.50
2017-10-23T22:43:53.870Z,5.00
2017-10-23T22:46:21.655Z,5.83
2017-10-23T22:48:50.333Z,5.73
2017-10-23T22:51:18.787Z,5.90
2017-10-23T22:53:47.276Z,5.40
2017-10-23T22:56:14.981Z,6.00
2017-10-23T22:58:43.146Z,5.60
2017-10-23T23:01:11.182Z,5.70
2017-10-23T23:03:39.401Z,6.20
2017-10-23T23:06:07.621Z,5.83
2017-10-23T23:08:35.745Z,5.80
2017-10-23T23:11:04.355Z,6.00
2017-10-23T23:13:32.870Z,6.00
2017-10-23T23:16:01.037Z,6.13
2017-10-23T23:18:29.217Z,6.23
2017-10-23T23:20:57.384Z,6.13
2017-10-23T23:23:25.249Z,5.67
2017-10-23T23:25:53.480Z,5.33
2017-10-23T23:28:22.011Z,6.33
2017-10-23T23:30:50.485Z,6.90
2017-10-23T23:33:18.644Z,5.63
2017-10-23T23:35:47.137Z,5.87
2017-10-23T23:38:15.327Z,5.67
2017-10-23T23:40:43.418Z,5.80
2017-10-23T23:43:11.142Z,6.00
2017-10-23T23:45:39.693Z,5.60
2017-10-23T23:48:08.276Z,5.30
2017-10-23T23:50:36.472Z,5.13
2017-10-23T23:53:04.581Z,6.27
2017-10-23T23:55:33.787Z,5.87
2017-10-23T23:58:02.203Z,5.30
